sensor_id;sensor_type;location;lat;lon;timestamp;temperature;humidity
9537;DHT22;4807;48.024;11.726;2023-04-03T00:02:58;1.90;99.90
9537;DHT22;4807;48.024;11.726;2023-04-03T00:06:07;1.90;99.90
9537;DHT22;4807;48.024;11.726;2023-04-03T00:09:18;1.90;99.90
9537;DHT22;4807;48.024;11.726;2023-04-03T00:12:26;1.90;99.90
9537;DHT22;4807;48.024;11.726;2023-04-03T00:15:35;2.00;99.90
9537;DHT22;4807;48.024;11.726;2023-04-03T00:18:44;2.00;99.90
9537;DHT22;4807;48.024;11.726;2023-04-03T00:21:53;2.00;99.90
9537;DHT22;4807;48.024;11.726;2023-04-03T00:25:01;2.00;99.90
9537;DHT22;4807;48.024;11.726;2023-04-03T00:28:10;1.90;99.90
9537;DHT22;4807;48.024;11.726;2023-04-03T00:31:18;1.90;99.90
9537;DHT22;4807;48.024;11.726;2023-04-03T00:34:27;1.90;99.90
9537;DHT22;4807;48.024;11.726;2023-04-03T00:37:36;1.90;99.90
9537;DHT22;4807;48.024;11.726;2023-04-03T00:40:46;1.90;99.90
9537;DHT22;4807;48.024;11.726;2023-04-03T00:43:56;1.90;99.90
9537;DHT22;4807;48.024;11.726;2023-04-03T00:47:06;1.90;99.90
9537;DHT22;4807;48.024;11.726;2023-04-03T00:50:16;1.80;99.90
9537;DHT22;4807;48.024;11.726;2023-04-03T00:53:30;1.80;99.90
9537;DHT22;4807;48.024;11.726;2023-04-03T00:56:41;1.80;99.90
9537;DHT22;4807;48.024;11.726;2023-04-03T00:59:55;1.80;99.90
9537;DHT22;4807;48.024;11.726;2023-04-03T01:03:08;1.90;99.90
9537;DHT22;4807;48.024;11.726;2023-04-03T01:06:21;1.80;99.90
9537;DHT22;4807;48.024;11.726;2023-04-03T01:09:35;1.80;99.90
9537;DHT22;4807;48.024;11.726;2023-04-03T01:12:47;1.80;99.90
9537;DHT22;4807;48.024;11.726;2023-04-03T01:15:57;1.80;99.90
9537;DHT22;4807;48.024;11.726;2023-04-03T01:19:13;1.80;99.90
9537;DHT22;4807;48.024;11.726;2023-04-03T01:22:26;1.80;99.90
9537;DHT22;4807;48.024;11.726;2023-04-03T01:25:45;1.80;99.90
9537;DHT22;4807;48.024;11.726;2023-04-03T01:28:55;1.80;99.90
9537;DHT22;4807;48.024;11.726;2023-04-03T01:32:08;1.70;99.90
9537;DHT22;4807;48.024;11.726;2023-04-03T01:35:16;1.70;99.90
9537;DHT22;4807;48.024;11.726;2023-04-03T01:38:25;1.70;99.90
9537;DHT22;4807;48.024;11.726;2023-04-03T01:41:34;1.80;99.90
9537;DHT22;4807;48.024;11.726;2023-04-03T01:44:50;1.80;99.90
9537;DHT22;4807;48.024;11.726;2023-04-03T01:48:00;1.90;99.90
9537;DHT22;4807;48.024;11.726;2023-04-03T01:51:09;1.90;99.90
9537;DHT22;4807;48.024;11.726;2023-04-03T01:54:17;1.90;99.90
9537;DHT22;4807;48.024;11.726;2023-04-03T01:57:26;1.90;99.90
9537;DHT22;4807;48.024;11.726;2023-04-03T02:00:35;1.90;99.90
9537;DHT22;4807;48.024;11.726;2023-04-03T02:03:45;2.00;99.90
9537;DHT22;4807;48.024;11.726;2023-04-03T02:06:53;2.00;99.90
9537;DHT22;4807;48.024;11.726;2023-04-03T02:10:02;2.00;99.90
9537;DHT22;4807;48.024;11.726;2023-04-03T02:13:11;2.00;99.90
9537;DHT22;4807;48.024;11.726;2023-04-03T02:16:19;2.10;99.90
9537;DHT22;4807;48.024;11.726;2023-04-03T02:19:30;2.10;99.90
9537;DHT22;4807;48.024;11.726;2023-04-03T02:22:40;2.10;99.90
9537;DHT22;4807;48.024;11.726;2023-04-03T02:25:49;2.00;99.90
9537;DHT22;4807;48.024;11.726;2023-04-03T02:28:57;2.00;99.90
9537;DHT22;4807;48.024;11.726;2023-04-03T02:32:05;2.00;99.90
9537;DHT22;4807;48.024;11.726;2023-04-03T02:35:16;2.00;99.90
9537;DHT22;4807;48.024;11.726;2023-04-03T02:38:25;1.90;99.90
9537;DHT22;4807;48.024;11.726;2023-04-03T02:41:34;1.90;99.90
9537;DHT22;4807;48.024;11.726;2023-04-03T02:44:47;1.90;99.90
9537;DHT22;4807;48.024;11.726;2023-04-03T02:47:56;2.00;99.90
9537;DHT22;4807;48.024;11.726;2023-04-03T02:51:08;2.00;99.90
9537;DHT22;4807;48.024;11.726;2023-04-03T02:54:17;2.00;99.90
9537;DHT22;4807;48.024;11.726;2023-04-03T02:57:30;2.00;99.90
9537;DHT22;4807;48.024;11.726;2023-04-03T03:00:38;2.10;99.90
9537;DHT22;4807;48.024;11.726;2023-04-03T03:03:47;2.10;99.90
9537;DHT22;4807;48.024;11.726;2023-04-03T03:06:57;2.00;99.90
9537;DHT22;4807;48.024;11.726;2023-04-03T03:10:05;2.00;99.90
9537;DHT22;4807;48.024;11.726;2023-04-03T03:13:14;2.10;99.90
9537;DHT22;4807;48.024;11.726;2023-04-03T03:16:22;2.00;99.90
9537;DHT22;4807;48.024;11.726;2023-04-03T03:19:31;2.00;99.90
9537;DHT22;4807;48.024;11.726;2023-04-03T03:22:41;2.10;99.90
9537;DHT22;4807;48.024;11.726;2023-04-03T03:25:53;2.10;99.90
9537;DHT22;4807;48.024;11.726;2023-04-03T03:29:03;2.10;99.90
9537;DHT22;4807;48.024;11.726;2023-04-03T03:32:12;2.10;99.90
9537;DHT22;4807;48.024;11.726;2023-04-03T03:35:20;2.10;99.90
9537;DHT22;4807;48.024;11.726;2023-04-03T03:38:30;2.10;99.90
9537;DHT22;4807;48.024;11.726;2023-04-03T03:41:40;2.10;99.90
9537;DHT22;4807;48.024;11.726;2023-04-03T03:44:48;2.10;99.90
9537;DHT22;4807;48.024;11.726;2023-04-03T03:48:00;2.00;99.90
9537;DHT22;4807;48.024;11.726;2023-04-03T03:51:09;1.90;99.90
9537;DHT22;4807;48.024;11.726;2023-04-03T03:54:20;1.90;99.90
9537;DHT22;4807;48.024;11.726;2023-04-03T03:57:28;2.00;99.90
9537;DHT22;4807;48.024;11.726;2023-04-03T04:00:38;1.90;99.90
9537;DHT22;4807;48.024;11.726;2023-04-03T04:03:47;1.80;99.90
9537;DHT22;4807;48.024;11.726;2023-04-03T04:06:59;1.90;99.90
9537;DHT22;4807;48.024;11.726;2023-04-03T04:10:10;1.90;99.90
9537;DHT22;4807;48.024;11.726;2023-04-03T04:13:21;1.90;99.90
9537;DHT22;4807;48.024;11.726;2023-04-03T04:16:30;1.90;99.90
9537;DHT22;4807;48.024;11.726;2023-04-03T04:19:44;1.90;99.90
9537;DHT22;4807;48.024;11.726;2023-04-03T04:22:53;1.90;99.90
9537;DHT22;4807;48.024;11.726;2023-04-03T04:26:05;1.90;99.90
9537;DHT22;4807;48.024;11.726;2023-04-03T04:29:16;1.90;99.90
9537;DHT22;4807;48.024;11.726;2023-04-03T04:32:28;1.80;99.90
9537;DHT22;4807;48.024;11.726;2023-04-03T04:35:37;1.80;99.90
9537;DHT22;4807;48.024;11.726;2023-04-03T04:38:46;1.80;99.90
9537;DHT22;4807;48.024;11.726;2023-04-03T04:41:56;1.90;99.90
9537;DHT22;4807;48.024;11.726;2023-04-03T04:45:07;1.90;99.90
9537;DHT22;4807;48.024;11.726;2023-04-03T04:48:18;1.90;99.90
9537;DHT22;4807;48.024;11.726;2023-04-03T04:51:26;1.90;99.90
9537;DHT22;4807;48.024;11.726;2023-04-03T04:54:44;1.90;99.90
9537;DHT22;4807;48.024;11.726;2023-04-03T04:57:54;1.90;99.90
9537;DHT22;4807;48.024;11.726;2023-04-03T05:01:04;2.00;99.90
9537;DHT22;4807;48.024;11.726;2023-04-03T05:04:18;2.00;99.90
9537;DHT22;4807;48.024;11.726;2023-04-03T05:07:31;2.00;99.90
9537;DHT22;4807;48.024;11.726;2023-04-03T05:10:40;2.00;99.90
9537;DHT22;4807;48.024;11.726;2023-04-03T05:13:53;2.00;99.90
9537;DHT22;4807;48.024;11.726;2023-04-03T05:17:03;2.00;99.90
9537;DHT22;4807;48.024;11.726;2023-04-03T05:20:15;2.00;99.90
9537;DHT22;4807;48.024;11.726;2023-04-03T05:23:25;2.00;99.90
9537;DHT22;4807;48.024;11.726;2023-04-03T05:26:36;2.00;99.90
9537;DHT22;4807;48.024;11.726;2023-04-03T05:29:47;2.00;99.90
9537;DHT22;4807;48.024;11.726;2023-04-03T05:32:59;2.00;99.90
9537;DHT22;4807;48.024;11.726;2023-04-03T05:36:17;2.00;99.90
9537;DHT22;4807;48.024;11.726;2023-04-03T05:39:34;2.00;99.90
9537;DHT22;4807;48.024;11.726;2023-04-03T05:42:45;2.00;99.90
9537;DHT22;4807;48.024;11.726;2023-04-03T05:45:56;2.00;99.90
9537;DHT22;4807;48.024;11.726;2023-04-03T05:49:07;2.00;99.90
9537;DHT22;4807;48.024;11.726;2023-04-03T05:52:21;2.10;99.90
9537;DHT22;4807;48.024;11.726;2023-04-03T05:55:31;2.00;99.90
9537;DHT22;4807;48.024;11.726;2023-04-03T05:58:39;2.10;99.90
9537;DHT22;4807;48.024;11.726;2023-04-03T06:01:49;2.10;99.90
9537;DHT22;4807;48.024;11.726;2023-04-03T06:04:59;2.10;99.90
9537;DHT22;4807;48.024;11.726;2023-04-03T06:08:08;2.20;99.90
9537;DHT22;4807;48.024;11.726;2023-04-03T06:11:16;2.20;99.90
9537;DHT22;4807;48.024;11.726;2023-04-03T06:14:26;2.20;99.90
9537;DHT22;4807;48.024;11.726;2023-04-03T06:17:36;2.20;99.90
9537;DHT22;4807;48.024;11.726;2023-04-03T06:20:45;2.20;99.90
9537;DHT22;4807;48.024;11.726;2023-04-03T06:23:54;2.30;99.90
9537;DHT22;4807;48.024;11.726;2023-04-03T06:27:02;2.30;99.90
9537;DHT22;4807;48.024;11.726;2023-04-03T06:30:11;2.30;99.90
9537;DHT22;4807;48.024;11.726;2023-04-03T06:33:21;2.30;99.90
9537;DHT22;4807;48.024;11.726;2023-04-03T06:36:30;2.30;99.90
9537;DHT22;4807;48.024;11.726;2023-04-03T06:39:38;2.40;99.90
9537;DHT22;4807;48.024;11.726;2023-04-03T06:42:47;2.50;99.90
9537;DHT22;4807;48.024;11.726;2023-04-03T06:45:57;2.50;99.90
9537;DHT22;4807;48.024;11.726;2023-04-03T06:49:07;2.70;99.90
9537;DHT22;4807;48.024;11.726;2023-04-03T06:52:17;2.70;99.90
9537;DHT22;4807;48.024;11.726;2023-04-03T06:55:25;2.80;99.90
9537;DHT22;4807;48.024;11.726;2023-04-03T06:58:34;2.90;99.90
9537;DHT22;4807;48.024;11.726;2023-04-03T07:01:42;3.00;99.90
9537;DHT22;4807;48.024;11.726;2023-04-03T07:04:52;3.00;99.90
9537;DHT22;4807;48.024;11.726;2023-04-03T07:08:01;3.00;99.90
9537;DHT22;4807;48.024;11.726;2023-04-03T07:11:10;3.20;99.90
9537;DHT22;4807;48.024;11.726;2023-04-03T07:14:20;3.20;99.90
9537;DHT22;4807;48.024;11.726;2023-04-03T07:17:28;3.30;99.90
9537;DHT22;4807;48.024;11.726;2023-04-03T07:20:38;3.50;99.90
9537;DHT22;4807;48.024;11.726;2023-04-03T07:23:50;3.70;99.90
9537;DHT22;4807;48.024;11.726;2023-04-03T07:26:59;3.60;99.90
9537;DHT22;4807;48.024;11.726;2023-04-03T07:30:08;5.10;99.90
9537;DHT22;4807;48.024;11.726;2023-04-03T07:33:20;3.70;99.90
9537;DHT22;4807;48.024;11.726;2023-04-03T07:36:31;3.70;99.90
9537;DHT22;4807;48.024;11.726;2023-04-03T07:39:43;3.70;99.90
9537;DHT22;4807;48.024;11.726;2023-04-03T07:42:52;3.90;99.90
9537;DHT22;4807;48.024;11.726;2023-04-03T07:46:01;4.00;99.90
9537;DHT22;4807;48.024;11.726;2023-04-03T07:49:13;4.30;99.90
9537;DHT22;4807;48.024;11.726;2023-04-03T07:52:23;4.10;99.90
9537;DHT22;4807;48.024;11.726;2023-04-03T07:55:32;3.90;99.90
9537;DHT22;4807;48.024;11.726;2023-04-03T07:58:40;4.00;99.90
9537;DHT22;4807;48.024;11.726;2023-04-03T08:01:49;3.90;99.90
9537;DHT22;4807;48.024;11.726;2023-04-03T08:04:58;3.90;99.90
9537;DHT22;4807;48.024;11.726;2023-04-03T08:08:09;3.70;99.90
9537;DHT22;4807;48.024;11.726;2023-04-03T08:11:18;3.60;99.90
9537;DHT22;4807;48.024;11.726;2023-04-03T08:14:27;3.80;99.90
9537;DHT22;4807;48.024;11.726;2023-04-03T08:17:38;3.90;99.90
9537;DHT22;4807;48.024;11.726;2023-04-03T08:20:47;4.00;99.90
9537;DHT22;4807;48.024;11.726;2023-04-03T08:23:56;4.20;99.90
9537;DHT22;4807;48.024;11.726;2023-04-03T08:27:05;4.10;99.90
9537;DHT22;4807;48.024;11.726;2023-04-03T08:30:13;4.20;99.90
9537;DHT22;4807;48.024;11.726;2023-04-03T08:33:22;4.20;99.90
9537;DHT22;4807;48.024;11.726;2023-04-03T08:36:30;4.30;99.90
9537;DHT22;4807;48.024;11.726;2023-04-03T08:39:40;6.00;99.90
9537;DHT22;4807;48.024;11.726;2023-04-03T08:42:57;4.50;99.90
9537;DHT22;4807;48.024;11.726;2023-04-03T08:46:14;4.50;99.90
9537;DHT22;4807;48.024;11.726;2023-04-03T08:49:31;4.40;99.90
9537;DHT22;4807;48.024;11.726;2023-04-03T08:52:46;4.30;99.90
9537;DHT22;4807;48.024;11.726;2023-04-03T08:56:00;4.40;99.90
9537;DHT22;4807;48.024;11.726;2023-04-03T08:59:17;6.50;99.90
9537;DHT22;4807;48.024;11.726;2023-04-03T09:02:34;4.60;99.90
9537;DHT22;4807;48.024;11.726;2023-04-03T09:05:52;4.70;99.90
9537;DHT22;4807;48.024;11.726;2023-04-03T09:09:12;4.90;99.90
9537;DHT22;4807;48.024;11.726;2023-04-03T09:12:27;5.00;99.90
9537;DHT22;4807;48.024;11.726;2023-04-03T09:15:44;5.10;99.90
9537;DHT22;4807;48.024;11.726;2023-04-03T09:18:57;5.20;99.90
9537;DHT22;4807;48.024;11.726;2023-04-03T09:22:18;5.30;99.90
9537;DHT22;4807;48.024;11.726;2023-04-03T09:25:33;5.20;99.90
9537;DHT22;4807;48.024;11.726;2023-04-03T09:28:49;5.10;99.90
9537;DHT22;4807;48.024;11.726;2023-04-03T09:32:00;5.40;99.90
9537;DHT22;4807;48.024;11.726;2023-04-03T09:35:20;5.30;99.90
9537;DHT22;4807;48.024;11.726;2023-04-03T09:38:46;5.30;99.70
9537;DHT22;4807;48.024;11.726;2023-04-03T09:42:18;5.50;99.90
9537;DHT22;4807;48.024;11.726;2023-04-03T09:45:32;6.00;99.90
9537;DHT22;4807;48.024;11.726;2023-04-03T09:48:50;6.30;98.50
9537;DHT22;4807;48.024;11.726;2023-04-03T09:52:23;6.40;98.30
9537;DHT22;4807;48.024;11.726;2023-04-03T09:55:42;6.40;97.90
9537;DHT22;4807;48.024;11.726;2023-04-03T09:59:06;6.30;98.10
9537;DHT22;4807;48.024;11.726;2023-04-03T10:02:32;6.10;98.20
9537;DHT22;4807;48.024;11.726;2023-04-03T10:05:44;5.80;98.50
9537;DHT22;4807;48.024;11.726;2023-04-03T10:09:00;5.40;99.20
9537;DHT22;4807;48.024;11.726;2023-04-03T10:12:12;5.30;99.40
9537;DHT22;4807;48.024;11.726;2023-04-03T10:15:27;5.10;99.60
9537;DHT22;4807;48.024;11.726;2023-04-03T10:18:44;5.20;99.90
9537;DHT22;4807;48.024;11.726;2023-04-03T10:21:59;5.50;99.00
9537;DHT22;4807;48.024;11.726;2023-04-03T10:25:16;5.40;98.20
9537;DHT22;4807;48.024;11.726;2023-04-03T10:28:36;5.50;98.90
9537;DHT22;4807;48.024;11.726;2023-04-03T10:31:57;5.90;98.00
9537;DHT22;4807;48.024;11.726;2023-04-03T10:35:18;6.00;97.40
9537;DHT22;4807;48.024;11.726;2023-04-03T10:38:38;6.20;97.50
9537;DHT22;4807;48.024;11.726;2023-04-03T10:42:02;6.20;97.10
9537;DHT22;4807;48.024;11.726;2023-04-03T10:45:26;6.00;97.40
9537;DHT22;4807;48.024;11.726;2023-04-03T10:48:50;5.70;98.60
9537;DHT22;4807;48.024;11.726;2023-04-03T10:52:13;5.50;98.60
9537;DHT22;4807;48.024;11.726;2023-04-03T10:55:34;5.30;98.70
9537;DHT22;4807;48.024;11.726;2023-04-03T10:58:49;5.20;98.90
9537;DHT22;4807;48.024;11.726;2023-04-03T11:02:07;5.20;97.70
9537;DHT22;4807;48.024;11.726;2023-04-03T11:05:30;5.10;96.70
9537;DHT22;4807;48.024;11.726;2023-04-03T11:08:46;5.10;96.70
9537;DHT22;4807;48.024;11.726;2023-04-03T11:12:05;5.00;95.20
9537;DHT22;4807;48.024;11.726;2023-04-03T11:15:20;4.80;95.50
9537;DHT22;4807;48.024;11.726;2023-04-03T11:18:37;4.60;96.00
9537;DHT22;4807;48.024;11.726;2023-04-03T11:22:04;5.20;99.30
9537;DHT22;4807;48.024;11.726;2023-04-03T11:25:21;4.00;99.90
9537;DHT22;4807;48.024;11.726;2023-04-03T11:28:32;3.60;99.90
9537;DHT22;4807;48.024;11.726;2023-04-03T11:31:48;3.70;99.90
9537;DHT22;4807;48.024;11.726;2023-04-03T11:35:16;3.60;99.90
9537;DHT22;4807;48.024;11.726;2023-04-03T11:38:29;3.60;99.90
9537;DHT22;4807;48.024;11.726;2023-04-03T11:41:44;4.00;99.90
9537;DHT22;4807;48.024;11.726;2023-04-03T11:45:22;4.30;99.90
9537;DHT22;4807;48.024;11.726;2023-04-03T11:48:55;4.60;99.90
9537;DHT22;4807;48.024;11.726;2023-04-03T11:52:09;4.70;99.90
9537;DHT22;4807;48.024;11.726;2023-04-03T11:55:42;4.90;99.90
9537;DHT22;4807;48.024;11.726;2023-04-03T11:59:25;4.80;99.90
9537;DHT22;4807;48.024;11.726;2023-04-03T12:02:36;4.90;99.90
9537;DHT22;4807;48.024;11.726;2023-04-03T12:05:49;5.10;99.90
9537;DHT22;4807;48.024;11.726;2023-04-03T12:08:58;5.00;99.80
9537;DHT22;4807;48.024;11.726;2023-04-03T12:12:33;4.60;99.90
9537;DHT22;4807;48.024;11.726;2023-04-03T12:15:49;4.60;99.90
9537;DHT22;4807;48.024;11.726;2023-04-03T12:19:02;4.70;99.90
9537;DHT22;4807;48.024;11.726;2023-04-03T12:22:15;4.60;99.90
9537;DHT22;4807;48.024;11.726;2023-04-03T12:25:49;4.60;99.90
9537;DHT22;4807;48.024;11.726;2023-04-03T12:29:02;4.40;99.90
9537;DHT22;4807;48.024;11.726;2023-04-03T12:32:45;4.40;99.90
9537;DHT22;4807;48.024;11.726;2023-04-03T12:36:25;4.30;99.90
9537;DHT22;4807;48.024;11.726;2023-04-03T12:39:50;4.10;99.90
9537;DHT22;4807;48.024;11.726;2023-04-03T12:43:35;4.00;99.90
9537;DHT22;4807;48.024;11.726;2023-04-03T12:47:00;4.10;99.90
9537;DHT22;4807;48.024;11.726;2023-04-03T12:50:24;4.20;99.90
9537;DHT22;4807;48.024;11.726;2023-04-03T12:53:37;4.30;99.90
9537;DHT22;4807;48.024;11.726;2023-04-03T12:56:46;4.50;99.90
9537;DHT22;4807;48.024;11.726;2023-04-03T12:59:54;4.90;99.90
9537;DHT22;4807;48.024;11.726;2023-04-03T13:03:04;5.50;99.90
9537;DHT22;4807;48.024;11.726;2023-04-03T13:06:18;5.80;99.40
9537;DHT22;4807;48.024;11.726;2023-04-03T13:09:31;5.90;98.80
9537;DHT22;4807;48.024;11.726;2023-04-03T13:12:46;6.20;98.80
9537;DHT22;4807;48.024;11.726;2023-04-03T13:15:58;6.50;98.40
9537;DHT22;4807;48.024;11.726;2023-04-03T13:19:16;6.80;97.00
9537;DHT22;4807;48.024;11.726;2023-04-03T13:22:31;6.90;96.70
9537;DHT22;4807;48.024;11.726;2023-04-03T13:25:47;6.90;96.00
9537;DHT22;4807;48.024;11.726;2023-04-03T13:29:01;7.00;95.40
9537;DHT22;4807;48.024;11.726;2023-04-03T13:32:18;7.00;95.50
9537;DHT22;4807;48.024;11.726;2023-04-03T13:35:33;7.10;96.00
9537;DHT22;4807;48.024;11.726;2023-04-03T13:38:46;7.40;95.20
9537;DHT22;4807;48.024;11.726;2023-04-03T13:42:16;7.70;95.60
9537;DHT22;4807;48.024;11.726;2023-04-03T13:45:31;7.70;93.00
9537;DHT22;4807;48.024;11.726;2023-04-03T13:48:43;7.70;92.60
9537;DHT22;4807;48.024;11.726;2023-04-03T13:51:53;7.80;92.60
9537;DHT22;4807;48.024;11.726;2023-04-03T13:55:24;7.80;91.60
9537;DHT22;4807;48.024;11.726;2023-04-03T13:58:36;7.80;91.80
9537;DHT22;4807;48.024;11.726;2023-04-03T14:01:50;7.60;91.40
9537;DHT22;4807;48.024;11.726;2023-04-03T14:05:02;7.40;91.40
9537;DHT22;4807;48.024;11.726;2023-04-03T14:08:15;6.80;91.60
9537;DHT22;4807;48.024;11.726;2023-04-03T14:11:30;6.50;90.90
9537;DHT22;4807;48.024;11.726;2023-04-03T14:14:41;6.10;91.40
9537;DHT22;4807;48.024;11.726;2023-04-03T14:17:51;5.90;88.80
9537;DHT22;4807;48.024;11.726;2023-04-03T14:21:00;5.40;90.40
9537;DHT22;4807;48.024;11.726;2023-04-03T14:24:09;5.40;90.70
9537;DHT22;4807;48.024;11.726;2023-04-03T14:27:21;5.30;90.40
9537;DHT22;4807;48.024;11.726;2023-04-03T14:30:32;5.20;90.70
9537;DHT22;4807;48.024;11.726;2023-04-03T14:33:42;5.10;90.70
9537;DHT22;4807;48.024;11.726;2023-04-03T14:36:51;5.00;90.10
9537;DHT22;4807;48.024;11.726;2023-04-03T14:40:02;4.90;90.60
9537;DHT22;4807;48.024;11.726;2023-04-03T14:43:13;4.80;90.20
9537;DHT22;4807;48.024;11.726;2023-04-03T14:46:26;4.80;90.90
9537;DHT22;4807;48.024;11.726;2023-04-03T14:49:54;4.90;91.30
9537;DHT22;4807;48.024;11.726;2023-04-03T14:53:03;5.10;90.50
9537;DHT22;4807;48.024;11.726;2023-04-03T14:56:13;5.30;91.40
9537;DHT22;4807;48.024;11.726;2023-04-03T14:59:25;5.50;91.70
9537;DHT22;4807;48.024;11.726;2023-04-03T15:02:36;5.80;89.30
9537;DHT22;4807;48.024;11.726;2023-04-03T15:05:47;5.90;89.60
9537;DHT22;4807;48.024;11.726;2023-04-03T15:08:57;6.00;88.70
9537;DHT22;4807;48.024;11.726;2023-04-03T15:12:07;6.00;83.30
9537;DHT22;4807;48.024;11.726;2023-04-03T15:15:19;5.80;82.70
9537;DHT22;4807;48.024;11.726;2023-04-03T15:18:35;5.70;81.50
9537;DHT22;4807;48.024;11.726;2023-04-03T15:21:45;5.70;81.50
9537;DHT22;4807;48.024;11.726;2023-04-03T15:24:54;5.80;80.20
9537;DHT22;4807;48.024;11.726;2023-04-03T15:28:02;5.80;78.00
9537;DHT22;4807;48.024;11.726;2023-04-03T15:31:12;5.60;77.10
9537;DHT22;4807;48.024;11.726;2023-04-03T15:34:21;5.50;77.70
9537;DHT22;4807;48.024;11.726;2023-04-03T15:37:29;5.50;78.90
9537;DHT22;4807;48.024;11.726;2023-04-03T15:40:38;5.50;79.50
9537;DHT22;4807;48.024;11.726;2023-04-03T15:43:46;5.50;80.00
9537;DHT22;4807;48.024;11.726;2023-04-03T15:46:58;5.60;82.90
9537;DHT22;4807;48.024;11.726;2023-04-03T15:50:07;5.80;80.80
9537;DHT22;4807;48.024;11.726;2023-04-03T15:53:16;5.70;80.30
9537;DHT22;4807;48.024;11.726;2023-04-03T15:56:24;5.60;77.20
9537;DHT22;4807;48.024;11.726;2023-04-03T15:59:32;5.70;80.20
9537;DHT22;4807;48.024;11.726;2023-04-03T16:02:43;5.60;76.90
9537;DHT22;4807;48.024;11.726;2023-04-03T16:05:53;5.50;74.90
9537;DHT22;4807;48.024;11.726;2023-04-03T16:09:02;5.50;78.80
9537;DHT22;4807;48.024;11.726;2023-04-03T16:12:11;5.60;77.20
9537;DHT22;4807;48.024;11.726;2023-04-03T16:15:19;5.60;75.50
9537;DHT22;4807;48.024;11.726;2023-04-03T16:18:31;5.60;78.60
9537;DHT22;4807;48.024;11.726;2023-04-03T16:21:41;5.60;78.00
9537;DHT22;4807;48.024;11.726;2023-04-03T16:24:50;5.50;74.20
9537;DHT22;4807;48.024;11.726;2023-04-03T16:27:59;5.20;76.00
9537;DHT22;4807;48.024;11.726;2023-04-03T16:31:08;5.00;76.70
9537;DHT22;4807;48.024;11.726;2023-04-03T16:34:17;4.90;77.40
9537;DHT22;4807;48.024;11.726;2023-04-03T16:37:26;4.80;77.20
9537;DHT22;4807;48.024;11.726;2023-04-03T16:40:38;4.70;78.40
9537;DHT22;4807;48.024;11.726;2023-04-03T16:43:46;4.70;78.30
9537;DHT22;4807;48.024;11.726;2023-04-03T16:46:56;4.60;78.20
9537;DHT22;4807;48.024;11.726;2023-04-03T16:50:08;4.60;78.10
9537;DHT22;4807;48.024;11.726;2023-04-03T16:53:17;4.50;78.40
9537;DHT22;4807;48.024;11.726;2023-04-03T16:56:26;6.80;81.30
9537;DHT22;4807;48.024;11.726;2023-04-03T16:59:34;4.40;77.60
9537;DHT22;4807;48.024;11.726;2023-04-03T17:02:46;4.30;78.30
9537;DHT22;4807;48.024;11.726;2023-04-03T17:05:56;4.20;78.50
9537;DHT22;4807;48.024;11.726;2023-04-03T17:09:05;4.10;78.90
9537;DHT22;4807;48.024;11.726;2023-04-03T17:12:14;4.10;81.20
9537;DHT22;4807;48.024;11.726;2023-04-03T17:15:24;4.00;82.00
9537;DHT22;4807;48.024;11.726;2023-04-03T17:18:34;4.00;82.40
9537;DHT22;4807;48.024;11.726;2023-04-03T17:21:45;3.90;82.00
9537;DHT22;4807;48.024;11.726;2023-04-03T17:24:54;3.80;82.20
9537;DHT22;4807;48.024;11.726;2023-04-03T17:28:03;3.70;83.00
9537;DHT22;4807;48.024;11.726;2023-04-03T17:31:12;3.50;83.90
9537;DHT22;4807;48.024;11.726;2023-04-03T17:34:23;3.50;84.50
9537;DHT22;4807;48.024;11.726;2023-04-03T17:37:33;3.40;84.90
9537;DHT22;4807;48.024;11.726;2023-04-03T17:40:42;3.30;84.90
9537;DHT22;4807;48.024;11.726;2023-04-03T17:43:51;3.30;86.10
9537;DHT22;4807;48.024;11.726;2023-04-03T17:47:02;3.20;86.10
9537;DHT22;4807;48.024;11.726;2023-04-03T17:50:10;3.20;86.90
9537;DHT22;4807;48.024;11.726;2023-04-03T17:53:23;3.20;86.20
9537;DHT22;4807;48.024;11.726;2023-04-03T17:56:34;3.10;85.80
9537;DHT22;4807;48.024;11.726;2023-04-03T17:59:43;3.10;85.50
9537;DHT22;4807;48.024;11.726;2023-04-03T18:02:52;3.10;86.00
9537;DHT22;4807;48.024;11.726;2023-04-03T18:06:02;3.10;85.00
9537;DHT22;4807;48.024;11.726;2023-04-03T18:09:14;3.00;84.90
9537;DHT22;4807;48.024;11.726;2023-04-03T18:12:25;2.90;86.20
9537;DHT22;4807;48.024;11.726;2023-04-03T18:15:33;2.90;85.90
9537;DHT22;4807;48.024;11.726;2023-04-03T18:18:44;2.80;86.30
9537;DHT22;4807;48.024;11.726;2023-04-03T18:21:56;2.80;86.80
9537;DHT22;4807;48.024;11.726;2023-04-03T18:25:09;2.70;88.00
9537;DHT22;4807;48.024;11.726;2023-04-03T18:28:20;2.70;89.10
9537;DHT22;4807;48.024;11.726;2023-04-03T18:31:32;2.70;88.30
9537;DHT22;4807;48.024;11.726;2023-04-03T18:34:42;2.60;88.20
9537;DHT22;4807;48.024;11.726;2023-04-03T18:37:50;2.60;88.80
9537;DHT22;4807;48.024;11.726;2023-04-03T18:41:01;2.50;87.80
9537;DHT22;4807;48.024;11.726;2023-04-03T18:44:16;2.50;88.60
9537;DHT22;4807;48.024;11.726;2023-04-03T18:47:28;2.60;87.80
9537;DHT22;4807;48.024;11.726;2023-04-03T18:50:36;2.50;88.10
9537;DHT22;4807;48.024;11.726;2023-04-03T18:53:45;2.50;88.00
9537;DHT22;4807;48.024;11.726;2023-04-03T18:56:55;2.50;88.10
9537;DHT22;4807;48.024;11.726;2023-04-03T19:00:04;2.40;88.40
9537;DHT22;4807;48.024;11.726;2023-04-03T19:03:14;2.30;89.20
9537;DHT22;4807;48.024;11.726;2023-04-03T19:06:23;2.20;90.00
9537;DHT22;4807;48.024;11.726;2023-04-03T19:09:31;2.20;90.10
9537;DHT22;4807;48.024;11.726;2023-04-03T19:12:42;2.10;90.40
9537;DHT22;4807;48.024;11.726;2023-04-03T19:15:52;2.10;90.50
9537;DHT22;4807;48.024;11.726;2023-04-03T19:19:05;2.00;90.00
9537;DHT22;4807;48.024;11.726;2023-04-03T19:22:13;2.00;90.30
9537;DHT22;4807;48.024;11.726;2023-04-03T19:25:22;1.80;90.00
9537;DHT22;4807;48.024;11.726;2023-04-03T19:28:32;1.80;89.90
9537;DHT22;4807;48.024;11.726;2023-04-03T19:31:42;1.80;89.30
9537;DHT22;4807;48.024;11.726;2023-04-03T19:34:51;1.70;89.20
9537;DHT22;4807;48.024;11.726;2023-04-03T19:38:00;1.60;88.20
9537;DHT22;4807;48.024;11.726;2023-04-03T19:41:11;1.40;85.30
9537;DHT22;4807;48.024;11.726;2023-04-03T19:44:23;1.50;86.30
9537;DHT22;4807;48.024;11.726;2023-04-03T19:47:33;1.40;86.10
9537;DHT22;4807;48.024;11.726;2023-04-03T19:50:42;1.30;85.90
9537;DHT22;4807;48.024;11.726;2023-04-03T19:53:51;1.30;86.90
9537;DHT22;4807;48.024;11.726;2023-04-03T19:56:59;1.20;86.80
9537;DHT22;4807;48.024;11.726;2023-04-03T20:00:11;1.00;87.60
9537;DHT22;4807;48.024;11.726;2023-04-03T20:03:20;0.90;88.90
9537;DHT22;4807;48.024;11.726;2023-04-03T20:06:29;0.80;89.30
9537;DHT22;4807;48.024;11.726;2023-04-03T20:09:37;0.60;90.10
9537;DHT22;4807;48.024;11.726;2023-04-03T20:12:46;0.50;90.30
9537;DHT22;4807;48.024;11.726;2023-04-03T20:16:01;0.50;90.60
9537;DHT22;4807;48.024;11.726;2023-04-03T20:19:10;0.40;91.00
9537;DHT22;4807;48.024;11.726;2023-04-03T20:22:19;0.30;91.10
9537;DHT22;4807;48.024;11.726;2023-04-03T20:25:28;0.10;91.30
9537;DHT22;4807;48.024;11.726;2023-04-03T20:28:58;0.00;91.70
9537;DHT22;4807;48.024;11.726;2023-04-03T20:32:10;0.00;92.00
9537;DHT22;4807;48.024;11.726;2023-04-03T20:35:20;-0.90;91.90
9537;DHT22;4807;48.024;11.726;2023-04-03T20:38:29;-0.10;92.20
9537;DHT22;4807;48.024;11.726;2023-04-03T20:41:37;-0.20;92.70
9537;DHT22;4807;48.024;11.726;2023-04-03T20:44:46;-0.40;92.80
9537;DHT22;4807;48.024;11.726;2023-04-03T20:47:57;-0.60;93.30
9537;DHT22;4807;48.024;11.726;2023-04-03T20:51:08;-0.80;93.50
9537;DHT22;4807;48.024;11.726;2023-04-03T20:54:19;-0.80;93.80
9537;DHT22;4807;48.024;11.726;2023-04-03T20:57:29;-0.80;94.10